sensor_id;sensor_type;location;lat;lon;timestamp;P1;durP1;ratioP1;P2;durP2;ratioP2
67378;SDS011;54262;44.642;-0.974;2022-09-24T00:02:03;3.17;;;1.90;;
67378;SDS011;54262;44.642;-0.974;2022-09-24T00:04:29;1.65;;;1.65;;
67378;SDS011;54262;44.642;-0.974;2022-09-24T00:06:55;1.90;;;1.80;;
67378;SDS011;54262;44.642;-0.974;2022-09-24T00:09:21;1.70;;;1.60;;
67378;SDS011;54262;44.642;-0.974;2022-09-24T00:11:48;1.90;;;1.80;;
67378;SDS011;54262;44.642;-0.974;2022-09-24T00:14:15;1.80;;;1.70;;
67378;SDS011;54262;44.642;-0.974;2022-09-24T00:16:42;2.05;;;1.95;;
67378;SDS011;54262;44.642;-0.974;2022-09-24T00:19:10;1.90;;;1.80;;
67378;SDS011;54262;44.642;-0.974;2022-09-24T00:21:36;1.85;;;1.75;;
67378;SDS011;54262;44.642;-0.974;2022-09-24T00:24:04;5.43;;;1.92;;
67378;SDS011;54262;44.642;-0.974;2022-09-24T00:26:31;2.20;;;2.10;;
67378;SDS011;54262;44.642;-0.974;2022-09-24T00:29:17;1.85;;;1.75;;
67378;SDS011;54262;44.642;-0.974;2022-09-24T00:31:43;1.80;;;1.70;;
67378;SDS011;54262;44.642;-0.974;2022-09-24T00:34:09;2.17;;;1.95;;
67378;SDS011;54262;44.642;-0.974;2022-09-24T00:36:35;1.70;;;1.60;;
67378;SDS011;54262;44.642;-0.974;2022-09-24T00:39:01;1.73;;;1.63;;
67378;SDS011;54262;44.642;-0.974;2022-09-24T00:41:29;1.83;;;1.73;;
67378;SDS011;54262;44.642;-0.974;2022-09-24T00:43:55;1.60;;;1.50;;
67378;SDS011;54262;44.642;-0.974;2022-09-24T00:48:49;1.90;;;1.80;;
67378;SDS011;54262;44.642;-0.974;2022-09-24T00:51:17;2.00;;;1.75;;
67378;SDS011;54262;44.642;-0.974;2022-09-24T00:53:45;2.05;;;1.95;;
67378;SDS011;54262;44.642;-0.974;2022-09-24T00:56:12;1.92;;;1.83;;
67378;SDS011;54262;44.642;-0.974;2022-09-24T00:58:39;1.98;;;1.88;;
67378;SDS011;54262;44.642;-0.974;2022-09-24T01:01:07;1.73;;;1.60;;
67378;SDS011;54262;44.642;-0.974;2022-09-24T01:03:34;1.60;;;1.50;;
67378;SDS011;54262;44.642;-0.974;2022-09-24T01:06:05;1.77;;;1.67;;
67378;SDS011;54262;44.642;-0.974;2022-09-24T01:08:32;1.83;;;1.73;;
67378;SDS011;54262;44.642;-0.974;2022-09-24T01:18:45;3.53;;;1.83;;
67378;SDS011;54262;44.642;-0.974;2022-09-24T01:29:02;2.17;;;2.00;;
67378;SDS011;54262;44.642;-0.974;2022-09-24T01:31:42;1.90;;;1.80;;
67378;SDS011;54262;44.642;-0.974;2022-09-24T01:34:11;2.10;;;2.00;;
67378;SDS011;54262;44.642;-0.974;2022-09-24T01:36:39;1.70;;;1.60;;
67378;SDS011;54262;44.642;-0.974;2022-09-24T01:39:07;1.40;;;1.40;;
67378;SDS011;54262;44.642;-0.974;2022-09-24T01:41:34;2.10;;;2.00;;
67378;SDS011;54262;44.642;-0.974;2022-09-24T01:44:01;1.60;;;1.50;;
67378;SDS011;54262;44.642;-0.974;2022-09-24T01:46:30;2.08;;;1.98;;
67378;SDS011;54262;44.642;-0.974;2022-09-24T01:48:57;3.38;;;1.67;;
67378;SDS011;54262;44.642;-0.974;2022-09-24T01:51:24;1.90;;;1.80;;
67378;SDS011;54262;44.642;-0.974;2022-09-24T01:54:51;1.55;;;1.48;;
67378;SDS011;54262;44.642;-0.974;2022-09-24T01:56:48;1.88;;;1.77;;
67378;SDS011;54262;44.642;-0.974;2022-09-24T01:59:21;2.17;;;1.70;;
67378;SDS011;54262;44.642;-0.974;2022-09-24T02:04:20;1.80;;;1.70;;
67378;SDS011;54262;44.642;-0.974;2022-09-24T02:06:53;1.70;;;1.60;;
67378;SDS011;54262;44.642;-0.974;2022-09-24T02:09:33;1.67;;;1.58;;
67378;SDS011;54262;44.642;-0.974;2022-09-24T02:12:07;2.13;;;2.03;;
67378;SDS011;54262;44.642;-0.974;2022-09-24T02:14:39;1.85;;;1.75;;
67378;SDS011;54262;44.642;-0.974;2022-09-24T02:17:07;1.40;;;1.30;;
67378;SDS011;54262;44.642;-0.974;2022-09-24T02:19:35;1.92;;;1.83;;
67378;SDS011;54262;44.642;-0.974;2022-09-24T02:22:03;2.13;;;1.80;;
67378;SDS011;54262;44.642;-0.974;2022-09-24T02:24:39;1.50;;;1.50;;
67378;SDS011;54262;44.642;-0.974;2022-09-24T02:27:08;1.48;;;1.48;;
67378;SDS011;54262;44.642;-0.974;2022-09-24T02:29:34;1.65;;;1.55;;
67378;SDS011;54262;44.642;-0.974;2022-09-24T02:32:01;1.60;;;1.50;;
67378;SDS011;54262;44.642;-0.974;2022-09-24T02:34:30;1.77;;;1.77;;
67378;SDS011;54262;44.642;-0.974;2022-09-24T02:36:58;1.73;;;1.63;;
67378;SDS011;54262;44.642;-0.974;2022-09-24T02:39:25;1.70;;;1.63;;
67378;SDS011;54262;44.642;-0.974;2022-09-24T02:41:51;2.15;;;2.05;;
67378;SDS011;54262;44.642;-0.974;2022-09-24T02:44:18;1.75;;;1.65;;
67378;SDS011;54262;44.642;-0.974;2022-09-24T02:46:45;1.67;;;1.67;;
67378;SDS011;54262;44.642;-0.974;2022-09-24T02:49:12;1.70;;;1.60;;
67378;SDS011;54262;44.642;-0.974;2022-09-24T02:51:38;2.10;;;2.00;;
67378;SDS011;54262;44.642;-0.974;2022-09-24T02:54:05;1.70;;;1.60;;
67378;SDS011;54262;44.642;-0.974;2022-09-24T02:56:31;1.83;;;1.73;;
67378;SDS011;54262;44.642;-0.974;2022-09-24T02:58:57;1.45;;;1.45;;
67378;SDS011;54262;44.642;-0.974;2022-09-24T03:01:24;1.10;;;1.10;;
67378;SDS011;54262;44.642;-0.974;2022-09-24T03:03:50;1.83;;;1.73;;
67378;SDS011;54262;44.642;-0.974;2022-09-24T03:06:16;1.48;;;1.38;;
67378;SDS011;54262;44.642;-0.974;2022-09-24T03:08:42;1.83;;;1.73;;
67378;SDS011;54262;44.642;-0.974;2022-09-24T03:11:09;2.47;;;2.00;;
67378;SDS011;54262;44.642;-0.974;2022-09-24T03:13:36;1.80;;;1.70;;
67378;SDS011;54262;44.642;-0.974;2022-09-24T03:16:03;2.10;;;1.98;;
67378;SDS011;54262;44.642;-0.974;2022-09-24T03:18:29;1.52;;;1.42;;
67378;SDS011;54262;44.642;-0.974;2022-09-24T03:21:09;1.80;;;1.70;;
67378;SDS011;54262;44.642;-0.974;2022-09-24T03:23:35;1.55;;;1.50;;
67378;SDS011;54262;44.642;-0.974;2022-09-24T03:26:02;2.20;;;2.10;;
67378;SDS011;54262;44.642;-0.974;2022-09-24T03:28:28;1.83;;;1.73;;
67378;SDS011;54262;44.642;-0.974;2022-09-24T03:30:54;1.77;;;1.63;;
67378;SDS011;54262;44.642;-0.974;2022-09-24T03:38:31;2.00;;;1.90;;
67378;SDS011;54262;44.642;-0.974;2022-09-24T03:40:57;1.25;;;1.25;;
67378;SDS011;54262;44.642;-0.974;2022-09-24T03:43:24;4.28;;;2.63;;
67378;SDS011;54262;44.642;-0.974;2022-09-24T03:45:50;1.80;;;1.70;;
67378;SDS011;54262;44.642;-0.974;2022-09-24T03:48:16;2.03;;;1.92;;
67378;SDS011;54262;44.642;-0.974;2022-09-24T03:50:42;1.50;;;1.40;;
67378;SDS011;54262;44.642;-0.974;2022-09-24T03:53:10;2.58;;;2.45;;
67378;SDS011;54262;44.642;-0.974;2022-09-24T03:55:41;2.10;;;1.92;;
67378;SDS011;54262;44.642;-0.974;2022-09-24T03:58:07;1.50;;;1.40;;
67378;SDS011;54262;44.642;-0.974;2022-09-24T04:00:33;1.60;;;1.55;;
67378;SDS011;54262;44.642;-0.974;2022-09-24T04:02:59;2.00;;;1.90;;
67378;SDS011;54262;44.642;-0.974;2022-09-24T04:05:25;1.50;;;1.40;;
67378;SDS011;54262;44.642;-0.974;2022-09-24T04:07:54;1.80;;;1.70;;
67378;SDS011;54262;44.642;-0.974;2022-09-24T04:10:20;1.50;;;1.40;;
67378;SDS011;54262;44.642;-0.974;2022-09-24T04:12:47;1.95;;;1.85;;
67378;SDS011;54262;44.642;-0.974;2022-09-24T04:15:13;1.77;;;1.67;;
67378;SDS011;54262;44.642;-0.974;2022-09-24T04:17:48;2.08;;;1.98;;
67378;SDS011;54262;44.642;-0.974;2022-09-24T04:20:14;2.00;;;1.90;;
67378;SDS011;54262;44.642;-0.974;2022-09-24T04:22:40;1.67;;;1.58;;
67378;SDS011;54262;44.642;-0.974;2022-09-24T04:25:06;1.58;;;1.48;;
67378;SDS011;54262;44.642;-0.974;2022-09-24T04:27:32;2.30;;;2.20;;
67378;SDS011;54262;44.642;-0.974;2022-09-24T04:30:00;1.73;;;1.63;;
67378;SDS011;54262;44.642;-0.974;2022-09-24T04:32:26;1.45;;;1.40;;
67378;SDS011;54262;44.642;-0.974;2022-09-24T04:34:52;1.65;;;1.60;;
67378;SDS011;54262;44.642;-0.974;2022-09-24T04:37:18;2.22;;;2.13;;
67378;SDS011;54262;44.642;-0.974;2022-09-24T04:39:44;1.65;;;1.55;;
67378;SDS011;54262;44.642;-0.974;2022-09-24T04:42:14;2.30;;;1.80;;
67378;SDS011;54262;44.642;-0.974;2022-09-24T04:44:41;1.70;;;1.70;;
67378;SDS011;54262;44.642;-0.974;2022-09-24T04:47:11;1.70;;;1.60;;
67378;SDS011;54262;44.642;-0.974;2022-09-24T04:49:37;1.70;;;1.60;;
67378;SDS011;54262;44.642;-0.974;2022-09-24T04:52:03;1.70;;;1.60;;
67378;SDS011;54262;44.642;-0.974;2022-09-24T04:54:29;1.60;;;1.60;;
67378;SDS011;54262;44.642;-0.974;2022-09-24T04:56:56;1.90;;;1.80;;
67378;SDS011;54262;44.642;-0.974;2022-09-24T04:59:22;1.60;;;1.50;;
67378;SDS011;54262;44.642;-0.974;2022-09-24T05:01:48;1.80;;;1.70;;
67378;SDS011;54262;44.642;-0.974;2022-09-24T05:04:14;2.10;;;2.00;;
67378;SDS011;54262;44.642;-0.974;2022-09-24T05:06:40;1.73;;;1.63;;
67378;SDS011;54262;44.642;-0.974;2022-09-24T05:09:06;2.15;;;1.98;;
67378;SDS011;54262;44.642;-0.974;2022-09-24T05:11:32;1.80;;;1.70;;
67378;SDS011;54262;44.642;-0.974;2022-09-24T05:13:58;1.48;;;1.48;;
67378;SDS011;54262;44.642;-0.974;2022-09-24T05:16:24;2.03;;;1.92;;
67378;SDS011;54262;44.642;-0.974;2022-09-24T05:18:50;1.45;;;1.45;;
67378;SDS011;54262;44.642;-0.974;2022-09-24T05:21:16;1.85;;;1.75;;
67378;SDS011;54262;44.642;-0.974;2022-09-24T05:23:42;2.05;;;1.40;;
67378;SDS011;54262;44.642;-0.974;2022-09-24T05:26:09;1.60;;;1.50;;
67378;SDS011;54262;44.642;-0.974;2022-09-24T05:28:53;1.58;;;1.48;;
67378;SDS011;54262;44.642;-0.974;2022-09-24T05:31:19;1.77;;;1.50;;
67378;SDS011;54262;44.642;-0.974;2022-09-24T05:33:45;2.80;;;2.60;;
67378;SDS011;54262;44.642;-0.974;2022-09-24T05:36:11;1.77;;;1.67;;
67378;SDS011;54262;44.642;-0.974;2022-09-24T05:38:37;1.52;;;1.42;;
67378;SDS011;54262;44.642;-0.974;2022-09-24T05:41:03;1.80;;;1.70;;
67378;SDS011;54262;44.642;-0.974;2022-09-24T05:43:30;1.73;;;1.67;;
67378;SDS011;54262;44.642;-0.974;2022-09-24T05:45:56;1.90;;;1.80;;
67378;SDS011;54262;44.642;-0.974;2022-09-24T05:48:23;3.28;;;1.98;;
67378;SDS011;54262;44.642;-0.974;2022-09-24T05:50:50;1.98;;;1.88;;
67378;SDS011;54262;44.642;-0.974;2022-09-24T05:53:19;2.25;;;2.05;;
67378;SDS011;54262;44.642;-0.974;2022-09-24T05:55:47;1.70;;;1.65;;
67378;SDS011;54262;44.642;-0.974;2022-09-24T05:58:13;1.85;;;1.77;;
67378;SDS011;54262;44.642;-0.974;2022-09-24T06:00:39;3.10;;;2.67;;
67378;SDS011;54262;44.642;-0.974;2022-09-24T06:03:14;1.80;;;1.70;;
67378;SDS011;54262;44.642;-0.974;2022-09-24T06:05:44;2.00;;;1.90;;
67378;SDS011;54262;44.642;-0.974;2022-09-24T06:08:11;2.05;;;1.95;;
67378;SDS011;54262;44.642;-0.974;2022-09-24T06:10:39;2.00;;;1.90;;
67378;SDS011;54262;44.642;-0.974;2022-09-24T06:13:05;1.80;;;1.75;;
67378;SDS011;54262;44.642;-0.974;2022-09-24T06:15:31;2.20;;;2.10;;
67378;SDS011;54262;44.642;-0.974;2022-09-24T06:17:59;1.98;;;1.80;;
67378;SDS011;54262;44.642;-0.974;2022-09-24T06:20:25;2.33;;;2.22;;
67378;SDS011;54262;44.642;-0.974;2022-09-24T06:22:55;2.10;;;2.00;;
67378;SDS011;54262;44.642;-0.974;2022-09-24T06:25:22;2.50;;;1.70;;
67378;SDS011;54262;44.642;-0.974;2022-09-24T06:27:52;2.05;;;1.95;;
67378;SDS011;54262;44.642;-0.974;2022-09-24T06:30:25;1.90;;;1.80;;
67378;SDS011;54262;44.642;-0.974;2022-09-24T06:32:51;2.22;;;1.90;;
67378;SDS011;54262;44.642;-0.974;2022-09-24T06:35:18;2.10;;;2.00;;
67378;SDS011;54262;44.642;-0.974;2022-09-24T06:37:45;2.95;;;2.75;;
67378;SDS011;54262;44.642;-0.974;2022-09-24T06:40:12;2.50;;;2.40;;
67378;SDS011;54262;44.642;-0.974;2022-09-24T06:42:38;2.42;;;2.33;;
67378;SDS011;54262;44.642;-0.974;2022-09-24T06:45:04;2.33;;;2.22;;
67378;SDS011;54262;44.642;-0.974;2022-09-24T06:47:30;4.47;;;2.67;;
67378;SDS011;54262;44.642;-0.974;2022-09-24T06:49:57;1.63;;;1.52;;
67378;SDS011;54262;44.642;-0.974;2022-09-24T06:52:23;2.17;;;2.00;;
67378;SDS011;54262;44.642;-0.974;2022-09-24T06:54:49;1.60;;;1.50;;
67378;SDS011;54262;44.642;-0.974;2022-09-24T06:57:15;2.42;;;2.33;;
67378;SDS011;54262;44.642;-0.974;2022-09-24T06:59:41;1.70;;;1.70;;
67378;SDS011;54262;44.642;-0.974;2022-09-24T07:02:07;2.17;;;2.08;;
67378;SDS011;54262;44.642;-0.974;2022-09-24T07:04:34;2.28;;;2.17;;
67378;SDS011;54262;44.642;-0.974;2022-09-24T07:07:00;1.73;;;1.63;;
67378;SDS011;54262;44.642;-0.974;2022-09-24T07:09:45;2.50;;;1.95;;
67378;SDS011;54262;44.642;-0.974;2022-09-24T07:12:11;2.45;;;1.67;;
67378;SDS011;54262;44.642;-0.974;2022-09-24T07:14:37;1.40;;;1.38;;
67378;SDS011;54262;44.642;-0.974;2022-09-24T07:17:03;1.90;;;1.80;;
67378;SDS011;54262;44.642;-0.974;2022-09-24T07:19:29;2.38;;;2.10;;
67378;SDS011;54262;44.642;-0.974;2022-09-24T07:21:55;18.00;;;3.75;;
67378;SDS011;54262;44.642;-0.974;2022-09-24T07:24:21;9.68;;;2.88;;
67378;SDS011;54262;44.642;-0.974;2022-09-24T07:26:48;10.38;;;2.22;;
67378;SDS011;54262;44.642;-0.974;2022-09-24T07:29:14;6.88;;;3.08;;
67378;SDS011;54262;44.642;-0.974;2022-09-24T07:31:40;2.10;;;2.00;;
67378;SDS011;54262;44.642;-0.974;2022-09-24T07:34:06;8.75;;;2.50;;
67378;SDS011;54262;44.642;-0.974;2022-09-24T07:36:33;6.57;;;2.58;;
67378;SDS011;54262;44.642;-0.974;2022-09-24T07:38:59;3.30;;;2.35;;
67378;SDS011;54262;44.642;-0.974;2022-09-24T07:41:25;8.85;;;4.68;;
67378;SDS011;54262;44.642;-0.974;2022-09-24T07:43:51;5.63;;;3.20;;
67378;SDS011;54262;44.642;-0.974;2022-09-24T07:46:19;6.95;;;2.40;;
67378;SDS011;54262;44.642;-0.974;2022-09-24T07:48:45;11.40;;;3.10;;
67378;SDS011;54262;44.642;-0.974;2022-09-24T07:51:13;9.25;;;3.72;;
67378;SDS011;54262;44.642;-0.974;2022-09-24T07:53:39;3.25;;;2.63;;
67378;SDS011;54262;44.642;-0.974;2022-09-24T07:56:05;4.53;;;2.88;;
67378;SDS011;54262;44.642;-0.974;2022-09-24T07:58:31;5.35;;;2.67;;
67378;SDS011;54262;44.642;-0.974;2022-09-24T08:00:58;2.88;;;2.13;;
67378;SDS011;54262;44.642;-0.974;2022-09-24T08:03:24;4.65;;;2.78;;
67378;SDS011;54262;44.642;-0.974;2022-09-24T08:05:50;5.45;;;2.28;;
67378;SDS011;54262;44.642;-0.974;2022-09-24T08:08:21;7.75;;;2.72;;
67378;SDS011;54262;44.642;-0.974;2022-09-24T08:10:47;5.03;;;3.03;;
67378;SDS011;54262;44.642;-0.974;2022-09-24T08:13:13;5.20;;;2.58;;
67378;SDS011;54262;44.642;-0.974;2022-09-24T08:15:39;4.70;;;2.30;;
67378;SDS011;54262;44.642;-0.974;2022-09-24T08:18:06;2.42;;;2.33;;
67378;SDS011;54262;44.642;-0.974;2022-09-24T08:20:32;5.60;;;3.58;;
67378;SDS011;54262;44.642;-0.974;2022-09-24T08:23:06;2.40;;;2.30;;
67378;SDS011;54262;44.642;-0.974;2022-09-24T08:25:33;10.68;;;4.18;;
67378;SDS011;54262;44.642;-0.974;2022-09-24T08:28:00;5.75;;;5.07;;
67378;SDS011;54262;44.642;-0.974;2022-09-24T08:30:26;23.27;;;5.32;;
67378;SDS011;54262;44.642;-0.974;2022-09-24T08:32:53;3.20;;;2.90;;
67378;SDS011;54262;44.642;-0.974;2022-09-24T08:35:20;7.70;;;3.95;;
67378;SDS011;54262;44.642;-0.974;2022-09-24T08:37:46;2.15;;;2.00;;
67378;SDS011;54262;44.642;-0.974;2022-09-24T08:40:15;5.45;;;2.72;;
67378;SDS011;54262;44.642;-0.974;2022-09-24T08:45:15;9.82;;;4.05;;
67378;SDS011;54262;44.642;-0.974;2022-09-24T08:48:19;2.30;;;2.10;;
67378;SDS011;54262;44.642;-0.974;2022-09-24T08:50:49;2.95;;;2.00;;
67378;SDS011;54262;44.642;-0.974;2022-09-24T08:53:24;2.90;;;2.45;;
67378;SDS011;54262;44.642;-0.974;2022-09-24T08:55:57;3.30;;;2.55;;
67378;SDS011;54262;44.642;-0.974;2022-09-24T08:58:25;4.15;;;2.72;;
67378;SDS011;54262;44.642;-0.974;2022-09-24T09:03:23;6.32;;;2.30;;
67378;SDS011;54262;44.642;-0.974;2022-09-24T09:11:11;2.65;;;2.55;;
67378;SDS011;54262;44.642;-0.974;2022-09-24T09:13:46;2.53;;;2.42;;
67378;SDS011;54262;44.642;-0.974;2022-09-24T09:16:25;3.03;;;2.72;;
67378;SDS011;54262;44.642;-0.974;2022-09-24T09:18:54;6.93;;;2.22;;
67378;SDS011;54262;44.642;-0.974;2022-09-24T09:21:33;2.70;;;2.60;;
67378;SDS011;54262;44.642;-0.974;2022-09-24T09:24:02;2.30;;;2.20;;
67378;SDS011;54262;44.642;-0.974;2022-09-24T09:26:29;3.83;;;2.67;;
67378;SDS011;54262;44.642;-0.974;2022-09-24T09:28:57;2.17;;;2.08;;
67378;SDS011;54262;44.642;-0.974;2022-09-24T09:36:57;2.38;;;2.28;;
67378;SDS011;54262;44.642;-0.974;2022-09-24T09:44:40;2.42;;;2.22;;
67378;SDS011;54262;44.642;-0.974;2022-09-24T09:47:21;1.80;;;1.70;;
67378;SDS011;54262;44.642;-0.974;2022-09-24T09:49:50;2.15;;;1.90;;
67378;SDS011;54262;44.642;-0.974;2022-09-24T09:52:19;2.88;;;1.70;;
67378;SDS011;54262;44.642;-0.974;2022-09-24T09:54:46;1.90;;;1.80;;
67378;SDS011;54262;44.642;-0.974;2022-09-24T09:57:17;1.52;;;1.52;;
67378;SDS011;54262;44.642;-0.974;2022-09-24T09:59:51;1.73;;;1.65;;
67378;SDS011;54262;44.642;-0.974;2022-09-24T10:04:45;2.20;;;1.40;;
67378;SDS011;54262;44.642;-0.974;2022-09-24T10:07:12;2.00;;;1.90;;
67378;SDS011;54262;44.642;-0.974;2022-09-24T10:09:39;1.30;;;1.20;;
67378;SDS011;54262;44.642;-0.974;2022-09-24T10:12:15;2.10;;;1.90;;
67378;SDS011;54262;44.642;-0.974;2022-09-24T10:14:42;1.93;;;1.33;;
67378;SDS011;54262;44.642;-0.974;2022-09-24T10:17:12;2.05;;;1.58;;
67378;SDS011;54262;44.642;-0.974;2022-09-24T10:19:41;1.52;;;1.45;;
67378;SDS011;54262;44.642;-0.974;2022-09-24T10:22:17;1.73;;;1.63;;
67378;SDS011;54262;44.642;-0.974;2022-09-24T10:24:45;2.28;;;2.08;;
67378;SDS011;54262;44.642;-0.974;2022-09-24T10:27:12;1.90;;;1.80;;
67378;SDS011;54262;44.642;-0.974;2022-09-24T10:29:39;1.67;;;1.58;;
67378;SDS011;54262;44.642;-0.974;2022-09-24T10:32:24;2.20;;;1.55;;
67378;SDS011;54262;44.642;-0.974;2022-09-24T10:34:57;2.85;;;1.52;;
67378;SDS011;54262;44.642;-0.974;2022-09-24T10:37:23;1.80;;;1.70;;
67378;SDS011;54262;44.642;-0.974;2022-09-24T10:39:59;1.90;;;1.80;;
67378;SDS011;54262;44.642;-0.974;2022-09-24T10:42:26;2.13;;;2.00;;
67378;SDS011;54262;44.642;-0.974;2022-09-24T10:44:53;1.80;;;1.70;;
67378;SDS011;54262;44.642;-0.974;2022-09-24T10:47:22;6.13;;;1.60;;
67378;SDS011;54262;44.642;-0.974;2022-09-24T10:57:40;3.05;;;1.65;;
67378;SDS011;54262;44.642;-0.974;2022-09-24T11:00:19;1.60;;;1.50;;
67378;SDS011;54262;44.642;-0.974;2022-09-24T11:05:20;2.05;;;1.70;;
67378;SDS011;54262;44.642;-0.974;2022-09-24T11:07:57;1.38;;;1.23;;
67378;SDS011;54262;44.642;-0.974;2022-09-24T11:15:56;1.63;;;1.52;;
67378;SDS011;54262;44.642;-0.974;2022-09-24T11:18:26;1.58;;;1.48;;
67378;SDS011;54262;44.642;-0.974;2022-09-24T11:23:43;1.05;;;0.98;;
67378;SDS011;54262;44.642;-0.974;2022-09-24T11:28:54;1.95;;;1.23;;
67378;SDS011;54262;44.642;-0.974;2022-09-24T11:44:09;1.10;;;1.10;;
67378;SDS011;54262;44.642;-0.974;2022-09-24T11:52:18;1.60;;;1.50;;
67378;SDS011;54262;44.642;-0.974;2022-09-24T11:54:50;1.15;;;1.15;;
67378;SDS011;54262;44.642;-0.974;2022-09-24T12:02:13;1.30;;;1.20;;
67378;SDS011;54262;44.642;-0.974;2022-09-24T12:07:11;1.45;;;1.35;;
67378;SDS011;54262;44.642;-0.974;2022-09-24T12:12:32;1.23;;;1.23;;
67378;SDS011;54262;44.642;-0.974;2022-09-24T12:15:08;2.42;;;1.27;;
67378;SDS011;54262;44.642;-0.974;2022-09-24T12:20:13;0.90;;;0.90;;
67378;SDS011;54262;44.642;-0.974;2022-09-24T12:22:44;2.05;;;1.30;;
67378;SDS011;54262;44.642;-0.974;2022-09-24T12:25:11;1.33;;;1.23;;
67378;SDS011;54262;44.642;-0.974;2022-09-24T12:27:37;0.85;;;0.85;;
67378;SDS011;54262;44.642;-0.974;2022-09-24T12:37:56;1.02;;;0.93;;
67378;SDS011;54262;44.642;-0.974;2022-09-24T12:43:14;1.00;;;1.00;;
67378;SDS011;54262;44.642;-0.974;2022-09-24T12:45:42;1.45;;;1.35;;
67378;SDS011;54262;44.642;-0.974;2022-09-24T12:48:10;4.32;;;1.35;;
67378;SDS011;54262;44.642;-0.974;2022-09-24T12:50:37;1.33;;;1.23;;
67378;SDS011;54262;44.642;-0.974;2022-09-24T12:53:16;1.52;;;1.42;;
67378;SDS011;54262;44.642;-0.974;2022-09-24T12:55:46;1.27;;;1.20;;
67378;SDS011;54262;44.642;-0.974;2022-09-24T13:01:04;5.60;;;1.60;;
67378;SDS011;54262;44.642;-0.974;2022-09-24T13:03:37;1.30;;;1.20;;
67378;SDS011;54262;44.642;-0.974;2022-09-24T13:06:17;1.27;;;1.20;;
67378;SDS011;54262;44.642;-0.974;2022-09-24T13:08:44;1.65;;;1.50;;
67378;SDS011;54262;44.642;-0.974;2022-09-24T13:16:38;1.10;;;1.10;;
67378;SDS011;54262;44.642;-0.974;2022-09-24T13:19:08;4.80;;;1.20;;
67378;SDS011;54262;44.642;-0.974;2022-09-24T13:21:51;1.40;;;1.30;;
67378;SDS011;54262;44.642;-0.974;2022-09-24T13:24:43;1.40;;;1.30;;
67378;SDS011;54262;44.642;-0.974;2022-09-24T13:29:45;2.40;;;1.17;;
67378;SDS011;54262;44.642;-0.974;2022-09-24T13:32:14;2.63;;;1.30;;
67378;SDS011;54262;44.642;-0.974;2022-09-24T13:34:43;1.65;;;1.02;;
67378;SDS011;54262;44.642;-0.974;2022-09-24T13:37:15;1.13;;;1.13;;
67378;SDS011;54262;44.642;-0.974;2022-09-24T13:39:46;2.05;;;1.40;;
67378;SDS011;54262;44.642;-0.974;2022-09-24T13:42:22;1.05;;;1.05;;
67378;SDS011;54262;44.642;-0.974;2022-09-24T13:44:53;1.38;;;1.30;;
67378;SDS011;54262;44.642;-0.974;2022-09-24T13:47:32;1.17;;;1.17;;
67378;SDS011;54262;44.642;-0.974;2022-09-24T13:50:07;1.00;;;1.00;;
67378;SDS011;54262;44.642;-0.974;2022-09-24T13:52:58;1.35;;;1.25;;
67378;SDS011;54262;44.642;-0.974;2022-09-24T13:55:25;1.10;;;1.10;;
67378;SDS011;54262;44.642;-0.974;2022-09-24T13:57:52;1.30;;;1.20;;
67378;SDS011;54262;44.642;-0.974;2022-09-24T14:00:21;1.38;;;1.27;;
67378;SDS011;54262;44.642;-0.974;2022-09-24T14:02:51;1.45;;;1.30;;
67378;SDS011;54262;44.642;-0.974;2022-09-24T14:05:18;1.42;;;1.33;;
67378;SDS011;54262;44.642;-0.974;2022-09-24T14:07:56;1.60;;;1.50;;
67378;SDS011;54262;44.642;-0.974;2022-09-24T14:10:22;1.55;;;1.45;;
67378;SDS011;54262;44.642;-0.974;2022-09-24T14:13:01;2.05;;;1.50;;
67378;SDS011;54262;44.642;-0.974;2022-09-24T14:15:29;1.70;;;1.60;;
67378;SDS011;54262;44.642;-0.974;2022-09-24T14:17:58;1.30;;;1.30;;
67378;SDS011;54262;44.642;-0.974;2022-09-24T14:20:26;1.77;;;1.30;;
67378;SDS011;54262;44.642;-0.974;2022-09-24T14:22:53;1.40;;;1.30;;
67378;SDS011;54262;44.642;-0.974;2022-09-24T14:25:22;1.75;;;1.65;;
67378;SDS011;54262;44.642;-0.974;2022-09-24T14:27:50;4.22;;;1.92;;
67378;SDS011;54262;44.642;-0.974;2022-09-24T14:30:20;7.95;;;1.85;;
67378;SDS011;54262;44.642;-0.974;2022-09-24T14:32:50;1.88;;;1.77;;
67378;SDS011;54262;44.642;-0.974;2022-09-24T14:35:18;2.00;;;1.90;;
67378;SDS011;54262;44.642;-0.974;2022-09-24T14:37:49;1.50;;;1.40;;
67378;SDS011;54262;44.642;-0.974;2022-09-24T14:40:17;3.25;;;1.27;;
67378;SDS011;54262;44.642;-0.974;2022-09-24T14:45:16;2.33;;;1.80;;
67378;SDS011;54262;44.642;-0.974;2022-09-24T14:47:43;0.90;;;0.90;;
67378;SDS011;54262;44.642;-0.974;2022-09-24T14:53:19;1.05;;;1.05;;
67378;SDS011;54262;44.642;-0.974;2022-09-24T14:55:46;1.50;;;1.40;;
67378;SDS011;54262;44.642;-0.974;2022-09-24T15:00:52;4.00;;;1.20;;
67378;SDS011;54262;44.642;-0.974;2022-09-24T15:03:23;1.45;;;1.00;;
67378;SDS011;54262;44.642;-0.974;2022-09-24T15:06:00;1.40;;;1.30;;
67378;SDS011;54262;44.642;-0.974;2022-09-24T15:08:27;1.52;;;1.27;;
67378;SDS011;54262;44.642;-0.974;2022-09-24T15:11:02;0.80;;;0.80;;
67378;SDS011;54262;44.642;-0.974;2022-09-24T15:13:32;1.30;;;1.20;;
67378;SDS011;54262;44.642;-0.974;2022-09-24T15:16:25;1.08;;;0.95;;
67378;SDS011;54262;44.642;-0.974;2022-09-24T15:18:48;1.27;;;1.05;;
67378;SDS011;54262;44.642;-0.974;2022-09-24T15:21:20;1.30;;;1.20;;
67378;SDS011;54262;44.642;-0.974;2022-09-24T15:23:46;1.13;;;1.13;;
67378;SDS011;54262;44.642;-0.974;2022-09-24T15:26:12;1.30;;;1.30;;
67378;SDS011;54262;44.642;-0.974;2022-09-24T15:28:38;1.27;;;1.17;;
67378;SDS011;54262;44.642;-0.974;2022-09-24T15:31:04;1.92;;;1.38;;
67378;SDS011;54262;44.642;-0.974;2022-09-24T15:33:30;1.85;;;1.20;;
67378;SDS011;54262;44.642;-0.974;2022-09-24T15:35:56;1.60;;;1.50;;
67378;SDS011;54262;44.642;-0.974;2022-09-24T15:38:22;3.28;;;1.27;;
67378;SDS011;54262;44.642;-0.974;2022-09-24T15:40:49;1.60;;;1.50;;
67378;SDS011;54262;44.642;-0.974;2022-09-24T15:43:21;1.33;;;1.27;;
67378;SDS011;54262;44.642;-0.974;2022-09-24T15:45:47;3.53;;;1.92;;
67378;SDS011;54262;44.642;-0.974;2022-09-24T15:48:14;2.00;;;1.23;;
67378;SDS011;54262;44.642;-0.974;2022-09-24T15:50:41;1.40;;;1.30;;
67378;SDS011;54262;44.642;-0.974;2022-09-24T15:53:10;1.33;;;1.23;;
67378;SDS011;54262;44.642;-0.974;2022-09-24T15:55:36;3.45;;;1.17;;
67378;SDS011;54262;44.642;-0.974;2022-09-24T15:58:07;1.70;;;1.60;;
67378;SDS011;54262;44.642;-0.974;2022-09-24T16:00:35;1.40;;;1.30;;
67378;SDS011;54262;44.642;-0.974;2022-09-24T16:03:01;1.55;;;1.45;;
67378;SDS011;54262;44.642;-0.974;2022-09-24T16:05:27;1.27;;;1.17;;
67378;SDS011;54262;44.642;-0.974;2022-09-24T16:07:53;1.50;;;1.40;;
67378;SDS011;54262;44.642;-0.974;2022-09-24T16:10:19;1.58;;;1.45;;
67378;SDS011;54262;44.642;-0.974;2022-09-24T16:12:46;1.40;;;1.30;;
67378;SDS011;54262;44.642;-0.974;2022-09-24T16:15:12;2.13;;;1.50;;
67378;SDS011;54262;44.642;-0.974;2022-09-24T16:17:39;1.52;;;1.20;;
67378;SDS011;54262;44.642;-0.974;2022-09-24T16:20:05;2.15;;;1.40;;
67378;SDS011;54262;44.642;-0.974;2022-09-24T16:22:31;2.00;;;1.90;;
67378;SDS011;54262;44.642;-0.974;2022-09-24T16:24:57;2.05;;;1.42;;
67378;SDS011;54262;44.642;-0.974;2022-09-24T16:27:23;4.70;;;1.52;;
67378;SDS011;54262;44.642;-0.974;2022-09-24T16:29:49;3.65;;;1.20;;
67378;SDS011;54262;44.642;-0.974;2022-09-24T16:32:16;1.40;;;1.30;;
67378;SDS011;54262;44.642;-0.974;2022-09-24T16:34:42;1.95;;;1.60;;
67378;SDS011;54262;44.642;-0.974;2022-09-24T16:37:08;1.90;;;1.80;;
67378;SDS011;54262;44.642;-0.974;2022-09-24T16:39:34;1.63;;;1.52;;
67378;SDS011;54262;44.642;-0.974;2022-09-24T16:42:00;1.73;;;1.63;;
67378;SDS011;54262;44.642;-0.974;2022-09-24T16:44:26;1.50;;;1.40;;
67378;SDS011;54262;44.642;-0.974;2022-09-24T16:46:52;1.38;;;1.27;;
67378;SDS011;54262;44.642;-0.974;2022-09-24T16:49:18;1.50;;;1.40;;
67378;SDS011;54262;44.642;-0.974;2022-09-24T16:51:46;3.45;;;1.80;;
67378;SDS011;54262;44.642;-0.974;2022-09-24T16:54:12;1.42;;;1.40;;